Time;durP1;ratioP1;P1;durP2;ratioP2;P2;SDS_P1;SDS_P2;PMS_P1;PMS_P2;Temp;Humidity;BMP_temperature;BMP_pressure;BME280_temperature;BME280_humidity;BME280_pressure;Samples;Min_cycle;Max_cycle;Signal;HPM_P1;HPM_P2
2022/05/31 00:00:14;;;;;;;29.23;6.68;;;21.90;87.70;;;;;;5131513;28;20057;-73
2022/05/31 00:03:19;;;;;;;15.52;6.00;;;22.00;86.60;;;;;;5131709;28;20042;-73
2022/05/31 00:06:23;;;;;;;21.77;5.95;;;22.10;85.30;;;;;;5130987;28;20051;-73
2022/05/31 00:09:27;;;;;;;21.52;6.00;;;21.90;85.40;;;;;;5131747;28;20038;-73
2022/05/31 00:12:32;;;;;;;17.10;5.78;;;21.90;85.70;;;;;;5131422;28;20058;-73
2022/05/31 00:15:36;;;;;;;16.55;5.20;;;22.00;85.30;;;;;;5131644;28;20042;-73
2022/05/31 00:18:41;;;;;;;12.68;4.68;;;22.10;85.20;;;;;;5133980;27;20583;-73
2022/05/31 00:21:51;;;;;;;17.58;5.45;;;22.30;83.40;;;;;;5135389;27;20054;-73
2022/05/31 00:24:55;;;;;;;19.67;5.10;;;22.40;83.10;;;;;;5134336;27;20042;-73
2022/05/31 00:27:59;;;;;;;17.90;4.93;;;22.30;83.90;;;;;;5135467;27;20046;-73
2022/05/31 00:31:04;;;;;;;20.40;6.50;;;22.40;83.60;;;;;;5134336;27;20058;-72
2022/05/31 00:34:10;;;;;;;19.60;6.65;;;22.30;84.20;;;;;;5134406;27;20046;-72
2022/05/31 00:37:15;;;;;;;25.30;5.97;;;22.30;85.00;;;;;;5135278;27;20046;-72
2022/05/31 00:40:21;;;;;;;22.70;5.82;;;22.20;85.30;;;;;;5134991;27;20050;-72
2022/05/31 00:43:28;;;;;;;17.25;5.93;;;22.20;85.20;;;;;;5134113;27;20501;-73
2022/05/31 00:46:55;;;;;;;15.15;5.35;;;22.10;85.40;;;;;;5134672;27;20517;-73
2022/05/31 00:50:15;;;;;;;18.48;5.03;;;22.10;85.60;;;;;;5134106;27;20046;-73
2022/05/31 00:53:27;;;;;;;21.30;5.65;;;22.10;85.10;;;;;;5135187;27;20054;-73
2022/05/31 00:56:32;;;;;;;23.15;5.45;;;22.20;84.70;;;;;;5134946;27;20195;-73
2022/05/31 00:59:40;;;;;;;15.63;5.95;;;22.00;85.60;;;;;;5133956;27;20046;-73
2022/05/31 01:02:49;;;;;;;17.75;6.45;;;22.00;85.60;;;;;;5134641;27;20046;-73
2022/05/31 01:05:53;;;;;;;25.20;5.85;;;22.00;86.00;;;;;;5134089;27;20042;-73
2022/05/31 01:08:58;;;;;;;23.77;6.18;;;22.00;85.90;;;;;;5135040;27;20054;-73
2022/05/31 01:12:13;;;;;;;25.27;5.90;;;21.90;86.20;;;;;;5134586;27;20054;-72
2022/05/31 01:15:36;;;;;;;23.10;6.60;;;21.80;86.90;;;;;;5135572;27;20046;-72
2022/05/31 01:18:59;;;;;;;17.83;6.07;;;21.60;87.10;;;;;;5134600;27;20512;-73
2022/05/31 01:22:45;;;;;;;15.25;6.35;;;21.70;87.50;;;;;;5134469;27;20038;-73
2022/05/31 01:26:21;;;;;;;25.10;6.57;;;21.80;86.70;;;;;;5133363;27;20386;-72
2022/05/31 01:29:33;;;;;;;19.13;5.60;;;21.80;86.50;;;;;;5134059;27;20053;-73
2022/05/31 01:32:42;;;;;;;18.70;6.60;;;21.80;86.70;;;;;;5133365;27;20100;-72
2022/05/31 01:35:46;;;;;;;18.60;5.88;;;21.60;87.00;;;;;;5133449;27;20046;-73
2022/05/31 01:39:03;;;;;;;17.17;5.45;;;21.40;87.60;;;;;;5133795;27;20402;-73
2022/05/31 01:42:19;;;;;;;22.15;5.25;;;21.50;87.80;;;;;;5133904;27;20058;-72
2022/05/31 01:45:29;;;;;;;12.02;4.90;;;21.60;87.50;;;;;;5134052;27;20046;-73
2022/05/31 01:48:35;;;;;;;16.08;5.35;;;21.70;86.40;;;;;;5134068;27;20394;-72
2022/05/31 01:51:41;;;;;;;20.60;4.93;;;21.80;86.10;;;;;;5133578;27;20043;-73
2022/05/31 01:54:46;;;;;;;17.52;5.07;;;21.80;85.60;;;;;;5133097;27;20100;-73
2022/05/31 01:57:55;;;;;;;21.95;5.47;;;21.90;85.10;;;;;;5134074;27;20046;-72
2022/05/31 02:01:01;;;;;;;21.27;4.70;;;21.90;84.90;;;;;;5121305;27;20481;-73
2022/05/31 02:04:06;;;;;;;14.68;5.85;;;21.90;85.20;;;;;;5133790;27;20046;-73
2022/05/31 02:07:15;;;;;;;13.98;4.90;;;21.90;85.10;;;;;;5133036;27;20039;-73
2022/05/31 02:10:23;;;;;;;19.13;5.78;;;21.70;85.30;;;;;;5121122;27;20426;-73
2022/05/31 02:13:28;;;;;;;17.52;5.15;;;21.60;85.30;;;;;;5133004;27;20046;-73
2022/05/31 02:16:45;;;;;;;27.50;5.70;;;21.50;85.90;;;;;;5132869;27;20089;-73
2022/05/31 02:20:08;;;;;;;11.48;4.47;;;21.50;85.50;;;;;;5133112;27;20516;-72
2022/05/31 02:23:13;;;;;;;18.05;4.95;;;21.20;86.20;;;;;;5121074;27;20046;-72
2022/05/31 02:26:17;;;;;;;16.15;4.72;;;20.80;87.50;;;;;;5133167;27;20042;-72
2022/05/31 02:29:24;;;;;;;17.92;5.35;;;20.40;89.10;;;;;;5132545;27;20038;-73
2022/05/31 02:32:28;;;;;;;16.67;4.53;;;20.40;88.90;;;;;;5132276;27;20403;-73
2022/05/31 02:35:32;;;;;;;12.35;5.00;;;20.60;88.90;;;;;;5133178;27;20045;-73
2022/05/31 02:38:36;;;;;;;19.17;5.13;;;20.80;87.80;;;;;;5132551;27;20050;-72
2022/05/31 02:41:40;;;;;;;18.00;4.78;;;20.70;87.70;;;;;;5119576;27;20509;-72
2022/05/31 02:44:45;;;;;;;17.33;4.80;;;20.50;88.70;;;;;;5132733;27;20042;-72
2022/05/31 02:47:49;;;;;;;11.40;3.90;;;20.40;89.40;;;;;;5132371;27;20046;-72
2022/05/31 02:50:53;;;;;;;11.80;4.35;;;20.50;89.40;;;;;;5132244;27;20042;-72
2022/05/31 02:53:57;;;;;;;20.38;4.72;;;20.70;88.70;;;;;;5132144;27;20046;-73
2022/05/31 02:57:21;;;;;;;13.05;4.20;;;20.80;88.00;;;;;;5122893;27;20038;-73
2022/05/31 03:00:44;;;;;;;17.05;4.82;;;20.90;87.60;;;;;;5132626;27;20050;-73
2022/05/31 03:04:12;;;;;;;16.75;5.18;;;20.90;87.70;;;;;;5135080;27;20157;-73
2022/05/31 03:07:48;;;;;;;11.38;4.15;;;20.90;87.40;;;;;;5125633;27;20045;-73
2022/05/31 03:10:56;;;;;;;12.48;4.15;;;20.90;87.60;;;;;;5131684;27;20050;-73
2022/05/31 03:14:29;;;;;;;12.52;4.32;;;21.10;87.40;;;;;;5132502;27;20108;-73
2022/05/31 03:17:40;;;;;;;14.35;4.50;;;21.00;87.10;;;;;;5132257;27;20042;-73
2022/05/31 03:20:53;;;;;;;25.10;5.10;;;21.00;87.10;;;;;;5132186;27;20046;-73
2022/05/31 03:24:03;;;;;;;10.52;4.65;;;21.00;86.90;;;;;;5131510;27;20046;-73
2022/05/31 03:27:09;;;;;;;16.90;5.47;;;21.00;86.90;;;;;;5132083;27;20493;-73
2022/05/31 03:30:14;;;;;;;23.35;5.45;;;20.90;87.20;;;;;;5132082;27;20058;-73
2022/05/31 03:33:18;;;;;;;17.60;4.93;;;20.80;87.40;;;;;;5119237;28;20050;-73
2022/05/31 03:36:22;;;;;;;14.43;4.63;;;20.70;88.10;;;;;;5132094;28;20047;-72
2022/05/31 03:39:36;;;;;;;17.17;6.43;;;20.70;88.40;;;;;;5131470;28;20047;-73
2022/05/31 03:42:40;;;;;;;15.32;5.32;;;20.80;87.90;;;;;;5130959;28;20402;-72
2022/05/31 03:45:45;;;;;;;26.17;5.60;;;20.80;88.10;;;;;;5131260;28;20093;-73
2022/05/31 03:49:09;;;;;;;17.58;5.07;;;20.70;88.40;;;;;;5132240;28;20034;-72
2022/05/31 03:52:41;;;;;;;16.25;5.05;;;20.60;88.60;;;;;;5133423;27;20054;-73
2022/05/31 03:55:45;;;;;;;21.63;5.30;;;20.50;89.20;;;;;;5135185;27;20046;-72
2022/05/31 03:58:50;;;;;;;21.70;5.15;;;20.50;89.40;;;;;;5135424;27;20046;-73
2022/05/31 04:01:56;;;;;;;23.75;5.97;;;20.60;88.80;;;;;;5123046;27;20050;-73
2022/05/31 04:05:00;;;;;;;20.33;7.13;;;20.50;89.00;;;;;;5135044;27;20061;-73
2022/05/31 04:08:08;;;;;;;22.88;5.72;;;20.40;89.40;;;;;;5135034;27;20061;-73
2022/05/31 04:11:13;;;;;;;16.35;6.20;;;20.30;89.90;;;;;;5134817;27;20046;-73
2022/05/31 04:14:17;;;;;;;18.42;7.10;;;20.40;89.40;;;;;;5134772;27;20046;-72
2022/05/31 04:17:29;;;;;;;17.77;6.60;;;20.60;88.10;;;;;;5123146;27;20630;-72
2022/05/31 04:20:34;;;;;;;17.65;5.72;;;20.70;87.80;;;;;;5134896;27;20058;-73
2022/05/31 04:27:20;;;;;;;;;;;20.70;87.70;;;;;;5135716;27;20046;-72
2022/05/31 04:30:49;;;;;;;14.98;5.28;;;20.60;87.80;;;;;;5134346;27;20278;-72
2022/05/31 04:34:16;;;;;;;21.50;5.40;;;20.60;87.80;;;;;;5135294;27;20050;-73
2022/05/31 04:37:21;;;;;;;23.05;6.13;;;20.70;87.80;;;;;;5135128;27;20559;-73
2022/05/31 04:40:48;;;;;;;28.58;6.63;;;20.90;87.90;;;;;;5136607;27;20042;-73
2022/05/31 04:44:11;;;;;;;21.02;5.32;;;21.60;86.00;;;;;;5135054;27;20038;-73
2022/05/31 04:47:18;;;;;;;20.50;5.82;;;22.30;84.20;;;;;;5135031;27;20042;-73
2022/05/31 04:50:27;;;;;;;26.38;6.88;;;22.90;82.20;;;;;;5133783;27;20038;-73
2022/05/31 04:53:32;;;;;;;25.42;6.88;;;23.30;81.40;;;;;;5133917;27;20074;-73
2022/05/31 04:56:55;;;;;;;18.45;6.72;;;23.40;80.90;;;;;;5134927;27;20043;-73
2022/05/31 04:59:58;;;;;;;23.17;5.60;;;23.60;80.00;;;;;;5122150;27;20100;-73
2022/05/31 05:03:03;;;;;;;20.35;6.15;;;23.80;79.90;;;;;;5133311;27;20039;-73
2022/05/31 05:06:11;;;;;;;21.17;6.75;;;24.00;79.40;;;;;;5133993;27;20420;-73
2022/05/31 05:09:17;;;;;;;28.15;6.63;;;24.10;79.00;;;;;;5133804;27;20042;-73
2022/05/31 05:12:42;;;;;;;24.27;5.88;;;24.20;79.20;;;;;;5133488;27;20050;-73
2022/05/31 05:16:07;;;;;;;17.25;5.63;;;24.50;78.80;;;;;;5133829;27;20046;-73
2022/05/31 05:19:16;;;;;;;28.45;6.53;;;24.70;78.00;;;;;;5133556;27;20042;-74
2022/05/31 05:22:27;;;;;;;29.08;6.43;;;24.90;76.50;;;;;;5133470;27;20046;-77
2022/05/31 05:25:33;;;;;;;22.95;5.90;;;25.10;76.30;;;;;;5133709;27;20042;-78
2022/05/31 05:32:15;;;;;;;20.45;6.13;;;25.60;75.70;;;;;;5133242;27;20048;-78
2022/05/31 05:35:43;;;;;;;37.67;6.05;;;26.00;75.10;;;;;;5134372;27;20050;-78
2022/05/31 05:38:49;;;;;;;24.38;6.50;;;26.20;74.60;;;;;;5133571;27;20042;-78
2022/05/31 05:42:12;;;;;;;31.33;6.63;;;26.30;74.40;;;;;;5132722;27;20050;-77
2022/05/31 05:45:36;;;;;;;31.05;6.75;;;26.00;75.70;;;;;;5134104;27;20386;-77
2022/05/31 05:48:42;;;;;;;35.70;7.65;;;25.90;76.10;;;;;;5132862;27;20046;-77
2022/05/31 05:51:48;;;;;;;39.70;7.30;;;25.70;76.70;;;;;;5121256;27;20042;-78
2022/05/31 05:54:52;;;;;;;32.45;7.70;;;25.60;77.10;;;;;;5133485;27;20046;-76
2022/05/31 05:58:29;;;;;;;25.42;6.85;;;25.70;76.50;;;;;;5133550;27;20507;-75
2022/05/31 06:01:57;;;;;;;22.15;6.20;;;25.80;76.00;;;;;;5133788;27;20046;-76
2022/05/31 06:05:27;;;;;;;30.55;6.00;;;26.00;74.70;;;;;;5133167;27;20050;-77
2022/05/31 06:08:33;;;;;;;;;;;26.20;73.90;;;;;;5133133;27;20390;-76
2022/05/31 06:11:47;;;;;;;23.88;5.55;;;26.30;73.40;;;;;;5134260;27;20271;-79
2022/05/31 06:15:02;;;;;;;34.67;6.20;;;26.40;73.30;;;;;;5131761;27;20497;-79
2022/05/31 06:18:12;;;;;;;26.85;5.78;;;26.40;73.00;;;;;;5132907;27;20038;-76
2022/05/31 06:21:18;;;;;;;27.92;6.53;;;26.20;73.10;;;;;;5132180;27;20046;-74
2022/05/31 06:24:29;;;;;;;27.13;5.60;;;26.10;72.70;;;;;;5132132;27;20523;-74
2022/05/31 06:27:40;;;;;;;43.55;6.82;;;26.10;73.00;;;;;;5121902;27;20501;-81
2022/05/31 06:30:44;;;;;;;37.42;6.78;;;26.40;73.00;;;;;;5132677;27;20053;-80
2022/05/31 06:33:49;;;;;;;24.55;6.57;;;26.50;72.20;;;;;;5134959;27;20057;-79
2022/05/31 06:37:13;;;;;;;25.35;5.65;;;26.50;72.20;;;;;;5135236;27;20486;-76
2022/05/31 06:40:18;;;;;;;26.83;6.10;;;26.60;71.60;;;;;;5136515;27;20057;-74
2022/05/31 06:43:43;;;;;;;31.42;6.25;;;26.60;70.70;;;;;;5136666;27;20042;-80
2022/05/31 06:47:20;;;;;;;24.58;6.32;;;26.50;71.70;;;;;;5130410;27;20042;-76
2022/05/31 06:50:47;;;;;;;27.13;6.18;;;26.30;71.70;;;;;;5131333;27;20480;-74
2022/05/31 06:57:47;;;;;;;23.90;6.38;;;26.00;73.70;;;;;;5129205;27;20042;-77
2022/05/31 07:01:11;;;;;;;38.55;6.78;;;25.90;74.00;;;;;;5132201;27;20050;-81
2022/05/31 07:04:16;;;;;;;28.95;5.88;;;26.00;73.40;;;;;;5120478;27;20062;-78
2022/05/31 07:07:21;;;;;;;35.38;6.35;;;26.30;72.90;;;;;;5133228;27;20050;-80
2022/05/31 07:10:29;;;;;;;24.20;6.65;;;26.50;72.50;;;;;;5133746;27;20108;-79
2022/05/31 07:13:56;;;;;;;22.17;6.40;;;26.70;73.00;;;;;;5127856;27;20054;-76
2022/05/31 07:17:26;;;;;;;21.05;6.60;;;26.90;73.00;;;;;;5133553;27;20062;-81
2022/05/31 07:20:34;;;;;;;39.60;6.10;;;26.80;71.90;;;;;;5131723;27;20046;-80
2022/05/31 07:23:40;;;;;;;24.88;5.82;;;26.70;73.10;;;;;;5131546;27;20042;-80
2022/05/31 07:26:46;;;;;;;24.58;5.95;;;26.60;73.20;;;;;;5130902;27;20038;-76
2022/05/31 07:29:55;;;;;;;20.92;5.25;;;26.60;72.50;;;;;;5131604;27;20046;-77
2022/05/31 07:32:58;;;;;;;35.33;5.50;;;26.70;71.60;;;;;;5131518;28;20414;-74
2022/05/31 07:36:04;;;;;;;23.05;5.63;;;27.00;70.40;;;;;;5131950;28;20034;-78
2022/05/31 07:39:16;;;;;;;30.15;5.65;;;27.30;70.30;;;;;;5131993;28;20059;-79
2022/05/31 07:42:21;;;;;;;28.20;6.13;;;27.50;69.50;;;;;;5132295;27;20054;-81
2022/05/31 07:45:27;;;;;;;20.08;4.43;;;27.60;68.70;;;;;;5131191;28;20043;-74
2022/05/31 07:48:36;;;;;;;29.05;5.65;;;27.70;65.00;;;;;;5131770;28;20034;-81
2022/05/31 07:51:53;;;;;;;24.45;5.03;;;27.70;65.90;;;;;;5109381;28;20046;-79
2022/05/31 07:55:16;;;;;;;23.48;5.28;;;28.00;65.40;;;;;;5132167;28;20062;-79
2022/05/31 07:58:50;;;;;;;23.95;5.05;;;28.30;65.70;;;;;;5129200;27;20038;-81
2022/05/31 08:02:16;;;;;;;20.20;4.13;;;28.50;63.40;;;;;;5131882;28;20034;-80
2022/05/31 08:05:29;;;;;;;17.85;4.07;;;28.90;62.10;;;;;;5131048;28;20046;-81
2022/05/31 08:08:34;;;;;;;21.60;4.22;;;29.00;58.80;;;;;;5130693;28;20038;-80
2022/05/31 08:11:38;;;;;;;17.75;4.47;;;28.90;59.10;;;;;;5131293;28;20050;-81
2022/05/31 08:14:45;;;;;;;20.05;4.57;;;29.00;58.60;;;;;;5132020;28;20054;-79
2022/05/31 08:17:49;;;;;;;20.75;4.95;;;29.00;58.10;;;;;;5131626;28;20497;-80
2022/05/31 08:21:01;;;;;;;19.13;4.55;;;28.90;58.50;;;;;;5131053;28;20038;-80
2022/05/31 08:24:07;;;;;;;23.25;5.00;;;28.70;57.80;;;;;;5131637;28;20548;-81
2022/05/31 08:27:11;;;;;;;18.13;4.30;;;28.70;56.60;;;;;;5131662;28;20042;-80
2022/05/31 08:30:15;;;;;;;18.05;4.68;;;28.50;58.40;;;;;;5131742;28;20109;-81
2022/05/31 08:33:19;;;;;;;22.88;5.05;;;28.50;58.40;;;;;;5131809;28;20398;-76
2022/05/31 08:36:23;;;;;;;24.88;6.22;;;28.50;58.30;;;;;;5132119;28;20034;-77
2022/05/31 08:39:27;;;;;;;105.78;12.82;;;28.60;58.90;;;;;;5134235;27;20054;-75
2022/05/31 08:42:34;;;;;;;22.65;5.57;;;28.60;59.60;;;;;;5134736;27;20054;-81
2022/05/31 08:45:50;;;;;;;21.08;6.07;;;28.60;58.50;;;;;;5135556;27;20530;-81
2022/05/31 08:49:20;;;;;;;15.52;4.57;;;28.70;58.70;;;;;;5137298;27;20054;-78
2022/05/31 08:52:28;;;;;;;43.30;8.82;;;28.70;55.60;;;;;;5135576;27;20072;-82
2022/05/31 08:59:18;;;;;;;14.32;4.15;;;28.80;55.80;;;;;;5135128;27;20066;-81
2022/05/31 09:02:31;;;;;;;16.52;4.38;;;28.90;55.70;;;;;;5136747;27;20062;-78
2022/05/31 09:05:40;;;;;;;18.25;5.47;;;28.90;55.50;;;;;;5135058;27;20375;-81
2022/05/31 09:09:17;;;;;;;19.88;5.10;;;29.00;56.40;;;;;;5135152;27;20437;-78
2022/05/31 09:12:27;;;;;;;17.95;4.10;;;29.30;54.50;;;;;;5134689;27;20062;-81
2022/05/31 09:15:54;;;;;;;21.73;4.38;;;29.60;53.40;;;;;;5134787;27;20390;-80
2022/05/31 09:19:05;;;;;;;15.73;4.75;;;29.70;53.40;;;;;;5135076;27;20057;-81
2022/05/31 09:22:10;;;;;;;24.92;5.32;;;29.80;54.20;;;;;;5134661;27;20070;-80
2022/05/31 09:25:15;;;;;;;14.85;3.78;;;29.90;54.70;;;;;;5134996;27;20042;-80
2022/05/31 09:28:29;;;;;;;18.33;4.70;;;29.90;54.20;;;;;;5134980;27;20493;-78
2022/05/31 09:31:42;;;;;;;18.83;5.43;;;30.00;53.80;;;;;;5134567;27;20062;-78
2022/05/31 09:35:12;;;;;;;19.00;5.85;;;30.20;53.50;;;;;;5134138;27;20054;-79
2022/05/31 09:38:53;;;;;;;35.72;7.50;;;30.30;54.10;;;;;;5134025;27;20042;-80
2022/05/31 09:42:22;;;;;;;29.05;5.88;;;30.50;54.60;;;;;;5133208;27;20058;-80
2022/05/31 09:45:29;;;;;;;22.92;5.22;;;30.70;53.70;;;;;;5133889;27;20050;-77
2022/05/31 09:48:37;;;;;;;18.50;5.03;;;30.80;54.90;;;;;;5133871;27;20164;-79
2022/05/31 09:51:43;;;;;;;13.63;4.38;;;30.90;54.70;;;;;;5133333;27;20402;-80
2022/05/31 09:59:11;;;;;;;16.98;4.53;;;31.00;53.50;;;;;;5132865;27;20505;-81
2022/05/31 10:02:36;;;;;;;11.45;4.20;;;31.00;52.60;;;;;;5133744;27;20042;-78
2022/05/31 10:05:45;;;;;;;16.27;3.97;;;31.00;53.40;;;;;;5132914;27;20065;-81
2022/05/31 10:08:54;;;;;;;20.17;4.32;;;31.10;53.80;;;;;;5132633;27;20046;-80
2022/05/31 10:12:13;;;;;;;22.38;4.55;;;31.10;53.60;;;;;;5132796;27;20049;-75
2022/05/31 10:15:43;;;;;;;26.00;5.72;;;31.20;52.80;;;;;;5133074;27;20054;-75
2022/05/31 10:18:57;;;;;;;30.05;5.80;;;31.20;53.10;;;;;;5133042;27;20042;-79
2022/05/31 10:22:17;;;;;;;26.23;5.40;;;31.20;51.60;;;;;;5132273;27;20046;-77
2022/05/31 10:25:46;;;;;;;21.50;3.53;;;31.20;52.60;;;;;;5133171;27;20043;-79
2022/05/31 10:29:29;;;;;;;15.47;3.23;;;31.20;51.80;;;;;;5133721;27;20096;-81
2022/05/31 10:33:10;;;;;;;16.00;3.63;;;31.30;49.80;;;;;;5132382;27;20406;-76
2022/05/31 10:36:16;;;;;;;20.25;3.72;;;31.30;49.20;;;;;;5133042;27;20050;-79
2022/05/31 10:39:26;;;;;;;19.60;3.63;;;31.30;48.70;;;;;;5132920;27;20037;-77
2022/05/31 10:42:34;;;;;;;23.80;3.47;;;31.30;48.80;;;;;;5132786;27;20130;-76
2022/05/31 10:45:38;;;;;;;20.10;3.83;;;31.30;47.90;;;;;;5132724;27;20038;-77
2022/05/31 10:48:47;;;;;;;12.30;3.53;;;31.30;47.80;;;;;;5132471;27;20038;-80
2022/05/31 10:52:03;;;;;;;18.55;3.63;;;31.40;48.60;;;;;;5132777;27;20073;-82
2022/05/31 10:55:37;;;;;;;12.10;3.00;;;31.40;48.70;;;;;;5133564;27;20394;-80
2022/05/31 10:58:57;;;;;;;13.45;4.50;;;31.50;49.10;;;;;;5132054;27;20038;-78
2022/05/31 11:02:32;;;;;;;22.88;6.45;;;31.50;48.60;;;;;;5132168;27;20390;-78
2022/05/31 11:05:40;;;;;;;26.08;5.93;;;31.50;48.40;;;;;;5132817;27;20249;-80
2022/05/31 11:12:33;;;;;;;16.98;4.07;;;31.50;48.10;;;;;;5133502;27;20472;-80
2022/05/31 11:16:07;;;;;;;15.95;3.47;;;31.50;49.00;;;;;;5132733;27;20054;-80
2022/05/31 11:19:21;;;;;;;19.77;3.78;;;31.50;48.70;;;;;;5132618;27;20054;-80
2022/05/31 11:22:47;;;;;;;17.08;3.47;;;31.40;48.50;;;;;;5133200;27;20042;-81
2022/05/31 11:26:08;;;;;;;14.52;3.97;;;31.40;49.30;;;;;;5133848;27;20046;-79
2022/05/31 11:29:15;;;;;;;26.45;4.03;;;31.30;50.50;;;;;;5133088;27;20046;-79
2022/05/31 11:32:46;;;;;;;14.77;3.70;;;31.30;51.20;;;;;;5132249;27;20035;-79
2022/05/31 11:36:14;;;;;;;17.80;3.88;;;31.20;51.40;;;;;;5133496;28;20070;-81
2022/05/31 11:39:42;;;;;;;16.25;3.80;;;31.20;51.40;;;;;;5132277;28;20409;-79
2022/05/31 11:43:09;;;;;;;21.85;4.38;;;31.10;51.90;;;;;;5133055;28;20429;-80
2022/05/31 11:46:31;;;;;;;41.60;7.05;;;31.10;53.60;;;;;;5131299;28;20038;-78
2022/05/31 11:49:50;;;;;;;16.45;3.75;;;31.10;53.60;;;;;;5131657;28;20054;-78
2022/05/31 11:53:10;;;;;;;15.80;3.78;;;31.10;54.00;;;;;;5131989;28;20050;-78
2022/05/31 11:57:06;;;;;;;31.65;5.05;;;31.00;53.80;;;;;;5132121;28;20054;-79
2022/05/31 12:00:14;;;;;;;14.40;2.97;;;31.00;53.50;;;;;;5120015;27;20410;-79
2022/05/31 12:03:28;;;;;;;26.25;3.20;;;30.90;53.00;;;;;;5132238;28;20042;-80
2022/05/31 12:07:09;;;;;;;13.27;3.30;;;30.80;51.20;;;;;;5132147;28;20034;-79
2022/05/31 12:10:23;;;;;;;25.02;3.63;;;30.80;52.80;;;;;;5131968;28;20046;-79
2022/05/31 12:13:29;;;;;;;44.72;4.85;;;30.80;53.30;;;;;;5133436;27;20050;-79
2022/05/31 12:16:33;;;;;;;22.73;3.35;;;30.70;51.90;;;;;;5136164;27;20104;-78
2022/05/31 12:20:16;;;;;;;23.80;3.05;;;30.70;52.20;;;;;;5135880;27;20065;-78
2022/05/31 12:23:44;;;;;;;9.35;2.50;;;30.60;52.80;;;;;;5136008;27;20054;-79
2022/05/31 12:27:06;;;;;;;42.05;4.10;;;30.50;52.90;;;;;;5135040;27;20041;-80
2022/05/31 12:30:33;;;;;;;19.27;3.67;;;30.40;52.60;;;;;;5135634;27;20055;-79
2022/05/31 12:33:44;;;;;;;41.38;4.05;;;30.40;53.10;;;;;;5135836;27;20054;-79
2022/05/31 12:37:07;;;;;;;29.35;3.25;;;30.30;52.40;;;;;;5135476;27;20042;-80
2022/05/31 12:40:38;;;;;;;17.70;2.92;;;30.20;51.60;;;;;;5135791;27;20046;-79
2022/05/31 12:43:42;;;;;;;41.20;4.18;;;30.20;53.30;;;;;;5135453;27;20053;-79
2022/05/31 12:46:47;;;;;;;41.33;4.80;;;30.20;52.40;;;;;;5135666;27;20042;-79
2022/05/31 12:49:57;;;;;;;25.35;3.47;;;30.20;53.40;;;;;;5134985;27;20042;-80
2022/05/31 12:56:30;;;;;;;20.40;3.72;;;30.20;54.10;;;;;;5135289;27;20043;-79
2022/05/31 12:59:44;;;;;;;13.02;2.70;;;30.20;54.00;;;;;;5135105;27;20497;-80
2022/05/31 13:02:47;;;;;;;22.95;3.35;;;30.20;54.70;;;;;;5134125;27;20042;-80
2022/05/31 13:06:13;;;;;;;22.15;3.90;;;30.20;53.70;;;;;;5135344;27;20047;-80
2022/05/31 13:09:24;;;;;;;15.25;2.92;;;30.10;53.80;;;;;;5135136;27;20050;-80
2022/05/31 13:19:35;;;;;;;19.02;3.15;;;30.10;56.20;;;;;;5134120;27;20042;-78
2022/05/31 13:22:47;;;;;;;22.25;3.42;;;30.10;56.40;;;;;;5134333;27;20030;-79
2022/05/31 13:26:32;;;;;;;12.80;3.17;;;30.10;56.30;;;;;;5132773;27;20046;-80
2022/05/31 13:29:36;;;;;;;30.35;3.38;;;30.00;56.40;;;;;;5091146;28;20051;-80
2022/05/31 13:32:40;;;;;;;23.70;3.95;;;30.00;55.50;;;;;;5091809;28;20046;-80
2022/05/31 13:35:45;;;;;;;23.65;4.25;;;30.00;55.60;;;;;;5134653;27;20075;-78
2022/05/31 13:38:55;;;;;;;18.20;4.20;;;30.00;56.10;;;;;;5134749;27;20042;-79
2022/05/31 13:42:02;;;;;;;15.07;2.80;;;30.00;57.00;;;;;;5134323;27;20050;-76
2022/05/31 13:45:10;;;;;;;10.63;2.83;;;30.00;57.20;;;;;;5134020;27;20050;-75
2022/05/31 13:48:23;;;;;;;21.02;3.35;;;30.00;57.10;;;;;;5133662;27;20398;-77
2022/05/31 13:51:29;;;;;;;8.73;2.80;;;29.90;57.60;;;;;;5133548;27;20394;-79
2022/05/31 13:54:43;;;;;;;14.43;3.10;;;29.90;58.20;;;;;;5134205;27;20142;-77
2022/05/31 13:57:55;;;;;;;18.23;2.95;;;29.90;57.50;;;;;;5134178;27;20042;-77
2022/05/31 14:01:05;;;;;;;23.40;4.30;;;29.90;56.90;;;;;;5133485;27;20034;-76
2022/05/31 14:04:18;;;;;;;18.70;4.05;;;29.90;57.30;;;;;;5133852;27;20038;-74
2022/05/31 14:07:27;;;;;;;15.05;3.05;;;29.90;57.10;;;;;;5134063;27;20046;-77
2022/05/31 14:10:36;;;;;;;13.98;3.40;;;29.90;56.60;;;;;;5133882;27;20046;-77
2022/05/31 14:13:40;;;;;;;15.95;2.80;;;29.90;57.40;;;;;;5133941;27;20054;-76
2022/05/31 14:16:44;;;;;;;23.65;3.80;;;29.90;56.10;;;;;;5134107;27;20042;-79
2022/05/31 14:19:51;;;;;;;23.17;4.07;;;29.90;56.70;;;;;;5133608;27;20058;-76
2022/05/31 14:23:03;;;;;;;16.42;3.25;;;29.90;55.30;;;;;;5133801;27;20046;-79
2022/05/31 14:26:09;;;;;;;21.55;3.08;;;29.90;55.20;;;;;;5133081;27;20051;-81
2022/05/31 14:29:13;;;;;;;15.82;4.65;;;29.90;55.30;;;;;;5133788;27;20042;-77
2022/05/31 14:32:26;;;;;;;17.35;3.70;;;29.90;55.50;;;;;;5133520;27;20054;-81
2022/05/31 14:35:46;;;;;;;18.60;4.05;;;29.90;55.80;;;;;;5133024;27;20394;-77
2022/05/31 14:38:50;;;;;;;10.80;3.35;;;29.90;56.50;;;;;;5133874;27;20042;-78
2022/05/31 14:41:55;;;;;;;15.60;2.95;;;29.90;56.50;;;;;;5133014;27;20549;-77
2022/05/31 14:45:01;;;;;;;20.75;3.90;;;29.90;56.90;;;;;;5132687;27;20501;-81
2022/05/31 14:48:30;;;;;;;10.13;3.17;;;29.90;55.70;;;;;;5133077;27;20042;-79
2022/05/31 14:51:40;;;;;;;16.17;3.40;;;29.80;56.00;;;;;;5132749;27;20050;-77
2022/05/31 14:54:47;;;;;;;10.48;2.53;;;29.80;55.70;;;;;;5132799;27;20050;-75
2022/05/31 15:01:48;;;;;;;10.35;3.13;;;29.80;55.00;;;;;;5132713;27;20066;-78
2022/05/31 15:04:56;;;;;;;15.18;3.47;;;29.80;55.40;;;;;;5132609;27;20046;-79
2022/05/31 15:08:01;;;;;;;12.90;4.13;;;29.80;55.00;;;;;;5132718;27;20390;-80
2022/05/31 15:21:16;;;;;;;22.23;3.50;;;29.80;55.10;;;;;;5132140;27;20046;-80
2022/05/31 15:24:33;;;;;;;13.73;2.97;;;29.80;54.30;;;;;;5132379;27;20058;-80
2022/05/31 15:27:37;;;;;;;15.65;3.67;;;29.80;53.60;;;;;;5132255;27;20053;-79
2022/05/31 15:30:42;;;;;;;18.05;3.38;;;29.80;53.30;;;;;;5132504;27;20054;-80
2022/05/31 15:33:46;;;;;;;17.85;3.50;;;29.80;52.00;;;;;;5131805;27;20058;-78
2022/05/31 15:36:50;;;;;;;22.23;3.05;;;29.80;52.50;;;;;;5132385;28;20046;-79
2022/05/31 15:39:56;;;;;;;16.05;3.60;;;29.80;52.20;;;;;;5132114;28;20046;-77
2022/05/31 15:43:00;;;;;;;11.05;2.95;;;29.80;52.40;;;;;;5131816;28;20050;-80
2022/05/31 15:46:05;;;;;;;22.33;4.15;;;29.80;52.90;;;;;;5130982;28;20498;-77
2022/05/31 15:49:10;;;;;;;12.57;2.95;;;29.80;52.50;;;;;;5134403;27;20062;-79
2022/05/31 15:52:27;;;;;;;12.27;3.28;;;29.80;52.80;;;;;;5133850;27;20046;-75
2022/05/31 15:55:31;;;;;;;11.23;3.65;;;29.80;53.10;;;;;;5135296;27;20051;-81
2022/05/31 15:58:35;;;;;;;8.88;2.85;;;29.80;52.70;;;;;;5135385;27;20034;-78
2022/05/31 16:01:39;;;;;;;11.00;3.20;;;29.80;52.70;;;;;;5136344;27;20039;-80
2022/05/31 16:04:43;;;;;;;17.27;4.30;;;29.80;52.60;;;;;;5135768;27;20054;-77
2022/05/31 16:07:50;;;;;;;12.32;3.22;;;29.80;52.50;;;;;;5135354;27;20038;-78
2022/05/31 16:10:54;;;;;;;13.23;2.97;;;29.80;52.80;;;;;;5135869;27;20042;-77
2022/05/31 16:14:00;;;;;;;16.77;3.22;;;29.80;52.70;;;;;;5135888;27;20378;-80
2022/05/31 16:17:04;;;;;;;18.02;4.25;;;29.80;52.90;;;;;;5135437;27;20626;-79
2022/05/31 16:20:08;;;;;;;12.38;3.10;;;29.80;53.10;;;;;;5134523;27;20046;-75
2022/05/31 16:23:21;;;;;;;20.73;4.05;;;29.80;53.30;;;;;;5134580;27;20050;-75
2022/05/31 16:26:26;;;;;;;18.17;5.22;;;29.70;53.20;;;;;;5135555;27;20375;-78
2022/05/31 16:29:31;;;;;;;22.25;4.80;;;29.70;53.20;;;;;;5135266;27;20082;-79
2022/05/31 16:32:35;;;;;;;21.35;3.42;;;29.70;53.00;;;;;;5135452;27;20042;-81
2022/05/31 16:35:40;;;;;;;17.58;3.65;;;29.70;53.00;;;;;;5133728;27;20485;-77
2022/05/31 16:42:07;;;;;;;16.63;3.35;;;29.60;53.00;;;;;;5135027;27;20050;-79
2022/05/31 16:45:12;;;;;;;18.40;3.00;;;29.60;52.90;;;;;;5135522;27;20042;-79
2022/05/31 16:48:16;;;;;;;23.38;4.47;;;29.60;53.20;;;;;;5134768;27;20149;-74
2022/05/31 16:51:25;;;;;;;22.77;3.65;;;29.60;53.10;;;;;;5132981;27;20045;-73
2022/05/31 16:54:32;;;;;;;12.23;2.92;;;29.50;53.30;;;;;;5133703;27;20530;-75
2022/05/31 16:57:36;;;;;;;12.65;2.83;;;29.50;53.20;;;;;;5133355;27;20521;-74
2022/05/31 17:00:41;;;;;;;18.98;4.95;;;29.50;53.30;;;;;;5133430;27;20043;-73
2022/05/31 17:03:45;;;;;;;10.82;3.35;;;29.50;52.90;;;;;;5134529;27;20046;-74
2022/05/31 17:17:02;;;;;;;14.10;4.00;;;29.30;53.30;;;;;;5134075;27;20046;-74
2022/05/31 17:20:18;;;;;;;16.35;3.70;;;29.30;52.90;;;;;;5134223;27;20050;-74
2022/05/31 17:23:28;;;;;;;17.40;3.35;;;29.30;53.00;;;;;;5134119;27;20070;-74
2022/05/31 17:26:33;;;;;;;20.85;3.95;;;29.30;52.20;;;;;;5133912;27;20053;-74
2022/05/31 17:29:39;;;;;;;22.27;3.75;;;29.30;51.80;;;;;;5134010;27;20215;-74